Time;durP1;ratioP1;P1;durP2;ratioP2;P2;SDS_P1;SDS_P2;PMS_P1;PMS_P2;Temp;Humidity;BMP_temperature;BMP_pressure;BME280_temperature;BME280_humidity;BME280_pressure;Samples;Min_cycle;Max_cycle;Signal;HPM_P1;HPM_P2
2023/04/08 00:01:21;;;;;;;7.55;5.60;;;6.20;99.90;;;;;;5033959;28;20209;-60
2023/04/08 00:03:49;;;;;;;8.00;6.07;;;6.20;99.90;;;;;;5033815;28;20229;-61
2023/04/08 00:06:16;;;;;;;9.88;6.47;;;6.20;99.90;;;;;;5033566;28;20208;-60
2023/04/08 00:08:43;;;;;;;6.60;5.97;;;6.20;99.90;;;;;;5033554;28;20213;-60
2023/04/08 00:11:09;;;;;;;6.65;6.05;;;6.20;99.90;;;;;;5033435;28;20210;-60
2023/04/08 00:13:36;;;;;;;6.97;5.80;;;6.20;99.90;;;;;;5033658;28;20228;-59
2023/04/08 00:16:03;;;;;;;9.52;6.60;;;6.10;99.90;;;;;;5033704;28;20244;-61
2023/04/08 00:18:30;;;;;;;6.68;5.35;;;6.10;99.90;;;;;;5033691;28;20198;-60
2023/04/08 00:20:59;;;;;;;6.95;5.13;;;6.10;99.90;;;;;;5033861;28;20198;-62
2023/04/08 00:23:26;;;;;;;8.02;5.85;;;6.10;99.90;;;;;;5033528;28;20232;-60
2023/04/08 00:25:52;;;;;;;7.03;5.32;;;6.00;99.90;;;;;;5033734;28;20209;-61
2023/04/08 00:28:20;;;;;;;6.65;5.72;;;6.00;99.90;;;;;;5037707;28;20702;-60
2023/04/08 00:30:46;;;;;;;7.65;5.65;;;6.00;99.90;;;;;;5038281;28;20214;-61
2023/04/08 00:33:13;;;;;;;9.13;6.75;;;6.00;99.90;;;;;;5038166;28;20275;-59
2023/04/08 00:35:40;;;;;;;9.02;6.38;;;6.00;99.90;;;;;;5038087;28;20207;-60
2023/04/08 00:38:08;;;;;;;7.07;6.35;;;6.00;99.90;;;;;;5037274;28;20285;-59
2023/04/08 00:40:35;;;;;;;7.82;5.80;;;6.00;99.90;;;;;;5037690;28;20209;-59
2023/04/08 00:43:02;;;;;;;7.15;6.45;;;6.00;99.90;;;;;;5037336;28;20233;-60
2023/04/08 00:45:29;;;;;;;7.30;5.65;;;6.10;99.90;;;;;;5037477;28;20302;-61
2023/04/08 00:47:56;;;;;;;5.72;5.22;;;6.10;99.90;;;;;;5037144;28;20199;-60
2023/04/08 00:50:23;;;;;;;7.10;6.40;;;6.10;99.90;;;;;;5037658;28;20577;-60
2023/04/08 00:52:50;;;;;;;7.72;5.28;;;6.10;99.90;;;;;;5037476;28;20206;-60
2023/04/08 00:55:18;;;;;;;6.82;5.75;;;6.10;99.90;;;;;;5037108;28;20575;-61
2023/04/08 00:57:45;;;;;;;8.38;6.00;;;6.00;99.90;;;;;;5037197;28;20226;-61
2023/04/08 01:00:14;;;;;;;12.40;9.23;;;6.00;99.90;;;;;;5037479;28;20202;-61
2023/04/08 01:02:47;;;;;;;8.43;6.07;;;6.00;99.90;;;;;;5037529;28;20198;-61
2023/04/08 01:05:19;;;;;;;6.70;5.80;;;6.00;99.90;;;;;;5036907;28;20193;-59
2023/04/08 01:07:49;;;;;;;8.98;6.10;;;6.00;99.90;;;;;;5037359;28;20218;-60
2023/04/08 01:10:20;;;;;;;6.95;5.50;;;6.00;99.90;;;;;;5036945;28;20252;-60
2023/04/08 01:12:51;;;;;;;7.20;6.50;;;6.00;99.90;;;;;;5036478;28;20187;-61
2023/04/08 01:15:19;;;;;;;8.38;6.00;;;6.00;99.90;;;;;;5036545;28;20194;-60
2023/04/08 01:17:47;;;;;;;8.85;6.43;;;6.10;99.90;;;;;;5035962;28;20715;-60
2023/04/08 01:20:14;;;;;;;7.40;5.57;;;6.00;99.90;;;;;;5036512;28;20691;-60
2023/04/08 01:22:54;;;;;;;6.75;5.80;;;6.10;99.90;;;;;;5036558;28;20206;-60
2023/04/08 01:25:25;;;;;;;6.90;5.45;;;6.00;99.90;;;;;;5076833;22;20230;-71
2023/04/08 01:27:56;;;;;;;8.30;5.53;;;6.00;99.90;;;;;;5055739;28;20652;-70
2023/04/08 01:30:24;;;;;;;9.48;6.80;;;6.00;99.90;;;;;;5056794;28;20190;-70
2023/04/08 01:32:53;;;;;;;6.72;5.80;;;6.00;99.90;;;;;;5055969;28;20669;-70
2023/04/08 01:35:20;;;;;;;6.88;5.88;;;6.10;99.90;;;;;;5055994;28;20220;-70
2023/04/08 01:37:49;;;;;;;9.30;6.45;;;6.00;99.90;;;;;;5055247;28;20722;-71
2023/04/08 01:40:17;;;;;;;9.20;6.80;;;6.10;99.90;;;;;;5055664;28;20582;-71
2023/04/08 01:42:45;;;;;;;8.52;6.53;;;6.10;99.90;;;;;;5055841;28;20233;-71
2023/04/08 01:45:15;;;;;;;9.05;6.38;;;6.00;99.90;;;;;;5056043;28;20227;-71
2023/04/08 01:47:46;;;;;;;7.68;5.85;;;6.00;99.90;;;;;;5056328;28;20194;-72
2023/04/08 01:50:14;;;;;;;7.65;6.45;;;6.00;99.90;;;;;;5056512;28;20197;-72
2023/04/08 01:52:43;;;;;;;7.20;6.07;;;6.00;99.90;;;;;;5055679;28;20275;-71
2023/04/08 01:55:10;;;;;;;9.98;6.10;;;5.90;99.90;;;;;;5055510;28;20225;-71
2023/04/08 01:57:39;;;;;;;8.27;6.45;;;5.90;99.90;;;;;;5055283;28;20308;-70
2023/04/08 02:00:09;;;;;;;9.27;6.55;;;5.90;99.90;;;;;;5055351;28;20733;-70
2023/04/08 02:02:39;;;;;;;8.90;6.43;;;5.90;99.90;;;;;;5055654;28;20202;-71
2023/04/08 02:05:06;;;;;;;7.70;6.13;;;5.90;99.90;;;;;;5055171;28;20264;-71
2023/04/08 02:07:33;;;;;;;8.55;5.68;;;6.00;99.90;;;;;;5055451;28;20198;-71
2023/04/08 02:10:00;;;;;;;8.38;6.47;;;5.90;99.90;;;;;;5055373;28;20550;-71
2023/04/08 02:12:28;;;;;;;8.50;6.40;;;5.90;99.90;;;;;;5056500;28;20206;-72
2023/04/08 02:14:56;;;;;;;8.55;6.70;;;5.90;99.90;;;;;;5055171;28;20658;-71
2023/04/08 02:17:29;;;;;;;8.50;6.68;;;6.00;99.90;;;;;;5055053;28;20279;-72
2023/04/08 02:20:07;;;;;;;8.90;6.20;;;6.00;99.90;;;;;;5055250;28;20263;-71
2023/04/08 02:22:40;;;;;;;9.73;6.32;;;6.00;99.90;;;;;;5055660;28;20186;-71
2023/04/08 02:25:13;;;;;;;9.07;6.50;;;6.00;99.90;;;;;;5056572;28;20257;-72
2023/04/08 02:27:41;;;;;;;7.90;6.68;;;6.00;99.90;;;;;;5055309;28;20182;-71
2023/04/08 02:30:10;;;;;;;9.13;6.50;;;6.00;99.90;;;;;;5054836;28;20260;-72
2023/04/08 02:32:38;;;;;;;7.75;5.80;;;6.00;99.90;;;;;;5055301;28;20213;-71
2023/04/08 02:35:07;;;;;;;8.35;6.25;;;6.00;99.90;;;;;;5054545;28;20639;-71
2023/04/08 02:37:34;;;;;;;6.45;5.72;;;6.00;99.90;;;;;;5054456;28;20218;-71
2023/04/08 02:40:01;;;;;;;9.30;5.68;;;6.00;99.90;;;;;;5054875;28;20213;-71
2023/04/08 02:42:28;;;;;;;7.78;5.82;;;6.00;99.90;;;;;;5054631;28;20202;-71
2023/04/08 02:44:54;;;;;;;8.13;5.13;;;6.00;99.90;;;;;;5054582;28;20221;-71
2023/04/08 02:47:21;;;;;;;6.43;5.65;;;6.00;99.90;;;;;;5054649;28;20201;-71
2023/04/08 02:49:51;;;;;;;7.50;6.05;;;6.00;99.90;;;;;;5053720;28;20208;-72
2023/04/08 02:52:19;;;;;;;7.55;6.40;;;6.00;99.90;;;;;;5054262;28;20667;-71
2023/04/08 02:54:46;;;;;;;6.70;5.35;;;6.00;99.90;;;;;;5054473;28;20222;-71
2023/04/08 02:57:13;;;;;;;6.75;5.63;;;6.00;99.90;;;;;;5054509;28;20214;-71
2023/04/08 02:59:40;;;;;;;7.35;5.65;;;6.10;99.90;;;;;;5054413;28;20556;-71
2023/04/08 03:02:07;;;;;;;9.45;6.82;;;6.10;99.90;;;;;;5054330;28;20202;-71
2023/04/08 03:04:33;;;;;;;8.90;6.43;;;6.00;99.90;;;;;;5054032;28;20222;-70
2023/04/08 03:07:00;;;;;;;6.85;5.55;;;6.00;99.90;;;;;;5054254;28;20204;-71
2023/04/08 03:09:28;;;;;;;7.43;5.72;;;6.00;99.90;;;;;;5054032;28;20693;-70
2023/04/08 03:11:55;;;;;;;8.50;6.68;;;6.00;99.90;;;;;;5053844;28;20563;-70
2023/04/08 03:14:22;;;;;;;10.07;7.30;;;6.00;99.90;;;;;;5054313;28;20221;-71
2023/04/08 03:16:49;;;;;;;9.75;6.90;;;6.00;99.90;;;;;;5053774;28;20220;-70
2023/04/08 03:19:15;;;;;;;6.95;6.20;;;6.00;99.90;;;;;;5053929;28;20206;-71
2023/04/08 03:21:42;;;;;;;11.57;7.00;;;6.10;99.90;;;;;;5053991;28;20205;-70
2023/04/08 03:24:09;;;;;;;9.70;6.82;;;6.10;99.90;;;;;;5053928;28;20226;-72
2023/04/08 03:26:37;;;;;;;7.60;5.93;;;6.10;99.90;;;;;;5054793;28;20232;-70
2023/04/08 03:29:05;;;;;;;8.52;6.47;;;6.10;99.90;;;;;;5054696;28;20292;-71
2023/04/08 03:31:32;;;;;;;8.23;6.85;;;6.00;99.90;;;;;;5055276;28;20206;-71
2023/04/08 03:33:59;;;;;;;9.38;6.78;;;6.00;99.90;;;;;;5054723;28;20644;-72
2023/04/08 03:36:26;;;;;;;11.23;6.63;;;6.00;99.90;;;;;;5054676;28;20206;-70
2023/04/08 03:38:53;;;;;;;8.98;6.35;;;6.00;99.90;;;;;;5054533;28;20226;-71
2023/04/08 03:41:20;;;;;;;10.15;6.60;;;6.00;99.90;;;;;;5054754;28;20198;-71
2023/04/08 03:43:48;;;;;;;11.57;6.97;;;6.00;99.90;;;;;;5054674;28;20225;-71
2023/04/08 03:46:15;;;;;;;9.52;6.70;;;6.00;99.90;;;;;;5055110;28;20198;-70
2023/04/08 03:48:42;;;;;;;9.23;6.43;;;6.00;99.90;;;;;;5053964;28;20202;-70
2023/04/08 03:51:08;;;;;;;12.68;6.28;;;6.00;99.90;;;;;;5054073;28;20216;-70
2023/04/08 03:53:35;;;;;;;10.70;6.47;;;6.00;99.90;;;;;;5053625;28;20738;-71
2023/04/08 03:56:03;;;;;;;10.13;6.90;;;6.00;99.90;;;;;;5054550;28;20212;-71
2023/04/08 03:58:30;;;;;;;9.88;7.22;;;6.00;99.90;;;;;;5054901;28;20221;-70
2023/04/08 04:00:59;;;;;;;10.50;6.80;;;6.00;99.90;;;;;;5054499;28;20292;-70
2023/04/08 04:03:26;;;;;;;12.35;7.63;;;6.00;99.90;;;;;;5054796;28;20209;-71
2023/04/08 04:05:52;;;;;;;10.85;7.22;;;6.00;99.90;;;;;;5054341;28;20202;-71
2023/04/08 04:11:30;;;;;;;11.38;8.45;;;6.00;99.90;;;;;;5113353;27;20539;-70
2023/04/08 04:13:57;;;;;;;10.60;6.70;;;6.10;99.90;;;;;;5111565;28;20734;-69
2023/04/08 04:16:24;;;;;;;10.40;7.80;;;6.10;99.90;;;;;;5111613;28;20285;-71
2023/04/08 04:18:52;;;;;;;12.88;8.10;;;6.10;99.90;;;;;;5111626;28;20226;-70
2023/04/08 04:21:19;;;;;;;12.60;9.43;;;6.10;99.90;;;;;;5111854;28;20203;-71
2023/04/08 04:23:46;;;;;;;14.35;8.93;;;6.10;99.90;;;;;;5111682;28;20226;-70
2023/04/08 04:26:13;;;;;;;17.63;9.95;;;6.10;99.90;;;;;;5112740;28;20203;-70
2023/04/08 04:28:41;;;;;;;13.38;8.75;;;6.10;99.90;;;;;;5112155;28;20203;-71
2023/04/08 04:31:08;;;;;;;15.30;9.70;;;6.10;99.90;;;;;;5111532;28;20715;-71
2023/04/08 04:33:34;;;;;;;18.35;11.23;;;6.10;99.90;;;;;;5113069;28;20230;-71
2023/04/08 04:36:01;;;;;;;15.48;10.65;;;6.10;99.90;;;;;;5113044;28;20216;-71
2023/04/08 04:38:28;;;;;;;18.30;11.32;;;6.00;99.90;;;;;;5115582;28;20200;-70
2023/04/08 04:40:55;;;;;;;15.00;10.25;;;6.00;99.90;;;;;;5117709;28;20196;-71
2023/04/08 04:43:22;;;;;;;16.65;10.05;;;6.00;99.90;;;;;;5117485;28;20210;-71
2023/04/08 04:45:50;;;;;;;22.27;11.50;;;5.90;99.90;;;;;;5115596;28;20207;-71
2023/04/08 04:48:17;;;;;;;17.30;10.27;;;5.90;99.90;;;;;;5114279;28;20200;-72
2023/04/08 04:50:44;;;;;;;21.40;12.40;;;6.00;99.90;;;;;;5112432;28;20310;-71
2023/04/08 04:53:10;;;;;;;19.35;11.32;;;6.00;99.90;;;;;;5111473;28;20286;-72
2023/04/08 04:55:37;;;;;;;22.10;12.40;;;6.00;99.90;;;;;;5111406;28;20200;-71
2023/04/08 04:58:04;;;;;;;17.10;10.80;;;6.00;99.90;;;;;;5111854;28;20196;-71
2023/04/08 05:00:31;;;;;;;17.58;10.35;;;6.00;99.90;;;;;;5119458;28;20200;-71
2023/04/08 05:02:59;;;;;;;19.25;12.00;;;6.00;99.90;;;;;;5124592;28;20203;-71
2023/04/08 05:05:26;;;;;;;20.15;11.40;;;6.00;99.90;;;;;;5124108;28;20251;-72
2023/04/08 05:07:52;;;;;;;18.10;12.10;;;6.00;99.90;;;;;;5121718;28;20633;-71
2023/04/08 05:10:20;;;;;;;18.13;12.75;;;6.00;99.90;;;;;;5123111;28;20224;-71
2023/04/08 05:12:46;;;;;;;18.58;12.05;;;6.00;99.90;;;;;;5122423;28;20204;-70
2023/04/08 05:15:13;;;;;;;15.57;11.13;;;6.00;99.90;;;;;;5123321;28;20609;-71
2023/04/08 05:17:40;;;;;;;18.05;12.00;;;6.00;99.90;;;;;;5125316;28;20264;-71
2023/04/08 05:20:09;;;;;;;21.38;13.25;;;6.00;99.90;;;;;;5125271;28;20284;-71
2023/04/08 05:22:36;;;;;;;24.13;14.43;;;6.10;99.90;;;;;;5108233;28;20197;-71
2023/04/08 05:25:03;;;;;;;24.30;13.40;;;6.00;99.90;;;;;;5101926;28;20272;-70
2023/04/08 05:27:30;;;;;;;21.23;12.23;;;6.00;99.90;;;;;;5099326;28;20204;-72
2023/04/08 05:29:57;;;;;;;20.70;12.52;;;6.00;99.90;;;;;;5099196;28;20212;-72
2023/04/08 05:32:24;;;;;;;24.08;12.65;;;6.10;99.90;;;;;;5099936;28;20207;-71
2023/04/08 05:34:50;;;;;;;17.98;10.85;;;6.10;99.90;;;;;;5101654;28;20305;-72
2023/04/08 05:37:19;;;;;;;23.35;12.70;;;6.10;99.90;;;;;;5107505;28;20307;-72
2023/04/08 05:39:45;;;;;;;21.92;12.32;;;6.10;99.90;;;;;;5109837;28;20208;-72
2023/04/08 05:42:12;;;;;;;19.73;11.98;;;6.10;99.90;;;;;;5113314;28;20209;-71
2023/04/08 05:44:40;;;;;;;18.27;12.57;;;6.10;99.90;;;;;;5109816;28;20299;-72
2023/04/08 05:47:07;;;;;;;22.45;12.10;;;6.10;99.90;;;;;;5108300;28;20258;-72
2023/04/08 05:49:34;;;;;;;19.25;12.10;;;6.10;99.90;;;;;;5102130;28;20224;-72
2023/04/08 05:52:02;;;;;;;20.80;12.93;;;6.10;99.90;;;;;;5098097;28;20204;-72
2023/04/08 05:54:30;;;;;;;18.65;11.63;;;6.10;99.90;;;;;;5098108;28;20642;-72
2023/04/08 05:56:57;;;;;;;22.98;11.13;;;6.10;99.90;;;;;;5097824;28;20211;-71
2023/04/08 05:59:24;;;;;;;14.00;11.45;;;6.20;99.90;;;;;;5097882;28;20200;-72
2023/04/08 06:01:51;;;;;;;18.27;11.48;;;6.20;99.90;;;;;;5098052;28;20197;-72
2023/04/08 06:04:18;;;;;;;20.85;12.80;;;6.20;99.90;;;;;;5096610;28;20644;-71
2023/04/08 06:06:44;;;;;;;17.83;11.73;;;6.20;99.90;;;;;;5095417;28;20235;-71
2023/04/08 06:09:11;;;;;;;21.02;13.63;;;6.20;99.90;;;;;;5095909;28;20302;-72
2023/04/08 06:11:39;;;;;;;20.75;13.57;;;6.20;99.90;;;;;;5096476;28;20208;-72
2023/04/08 06:14:06;;;;;;;20.23;12.43;;;6.20;99.90;;;;;;5096122;28;20227;-72
2023/04/08 06:16:33;;;;;;;20.58;13.55;;;6.20;99.90;;;;;;5096198;28;20296;-71
2023/04/08 06:19:00;;;;;;;19.83;12.00;;;6.20;99.90;;;;;;5095922;28;20204;-72
2023/04/08 06:21:26;;;;;;;21.60;11.82;;;6.30;99.90;;;;;;5095916;28;20578;-71
2023/04/08 06:23:53;;;;;;;20.33;12.85;;;6.30;99.90;;;;;;5096960;28;20630;-71
2023/04/08 06:26:20;;;;;;;19.77;12.45;;;6.30;99.90;;;;;;5096976;28;20200;-71
2023/04/08 06:28:48;;;;;;;19.30;13.00;;;6.20;99.90;;;;;;5095710;28;20204;-72
2023/04/08 06:31:15;;;;;;;19.92;12.75;;;6.30;99.90;;;;;;5097304;28;20213;-71
2023/04/08 06:33:42;;;;;;;21.63;12.95;;;6.30;99.90;;;;;;5098799;28;20227;-71
2023/04/08 06:36:09;;;;;;;18.77;12.55;;;6.30;99.90;;;;;;5100152;28;20573;-71
2023/04/08 06:38:36;;;;;;;20.05;13.00;;;6.40;99.90;;;;;;5100110;28;20666;-72
2023/04/08 06:41:03;;;;;;;17.92;12.80;;;6.40;99.90;;;;;;5100922;28;20286;-71
2023/04/08 06:43:30;;;;;;;19.58;12.43;;;6.40;99.90;;;;;;5100947;28;20200;-70
2023/04/08 06:45:58;;;;;;;17.90;11.77;;;6.50;99.90;;;;;;5100718;28;20200;-72
2023/04/08 06:48:27;;;;;;;17.45;13.10;;;6.50;99.90;;;;;;5099807;28;20200;-71
2023/04/08 06:50:55;;;;;;;16.92;12.05;;;6.60;99.90;;;;;;5100296;28;20307;-71
2023/04/08 06:53:23;;;;;;;17.02;11.70;;;6.60;99.90;;;;;;5100095;28;20588;-71
2023/04/08 06:55:50;;;;;;;20.55;11.98;;;6.60;99.90;;;;;;5097628;28;20617;-72
2023/04/08 06:58:17;;;;;;;16.25;11.60;;;6.70;99.90;;;;;;5097816;28;20234;-72
2023/04/08 07:00:44;;;;;;;17.70;12.25;;;6.70;99.90;;;;;;5098547;28;20196;-71
2023/04/08 07:03:12;;;;;;;15.93;11.40;;;6.80;99.90;;;;;;5099021;28;20203;-72
2023/04/08 07:05:40;;;;;;;18.13;12.60;;;6.80;99.90;;;;;;5097752;28;20196;-72
2023/04/08 07:08:07;;;;;;;18.20;11.10;;;6.80;99.90;;;;;;5096295;28;20231;-73
2023/04/08 07:10:35;;;;;;;16.42;11.55;;;6.80;99.90;;;;;;5095009;28;20232;-72
2023/04/08 07:13:01;;;;;;;19.10;11.90;;;6.80;99.90;;;;;;5094263;28;20202;-72
2023/04/08 07:15:28;;;;;;;19.45;12.05;;;6.80;99.90;;;;;;5094896;28;20220;-71
2023/04/08 07:17:56;;;;;;;17.35;12.10;;;6.90;99.90;;;;;;5095695;28;20200;-71
2023/04/08 07:20:24;;;;;;;20.77;13.27;;;6.90;99.90;;;;;;5095906;28;20589;-71
2023/04/08 07:22:52;;;;;;;17.25;12.43;;;7.00;99.90;;;;;;5096323;28;20209;-71
2023/04/08 07:25:18;;;;;;;20.05;11.85;;;7.00;99.90;;;;;;5097545;22;20294;-61
2023/04/08 07:27:45;;;;;;;16.88;12.23;;;7.10;99.90;;;;;;5060567;28;20197;-61
2023/04/08 07:30:12;;;;;;;17.48;11.07;;;7.20;99.90;;;;;;5058810;28;20201;-61
2023/04/08 07:32:39;;;;;;;16.00;10.50;;;7.20;99.90;;;;;;5058723;28;20206;-61
2023/04/08 07:35:07;;;;;;;17.02;12.52;;;7.20;99.90;;;;;;5069378;28;20251;-61
2023/04/08 07:37:35;;;;;;;14.90;11.27;;;7.30;99.90;;;;;;5077022;28;20201;-61
2023/04/08 07:40:02;;;;;;;17.23;11.55;;;7.40;99.90;;;;;;5076821;28;20730;-62
2023/04/08 07:42:29;;;;;;;18.70;11.65;;;7.40;99.90;;;;;;5076969;28;20602;-61
2023/04/08 07:44:55;;;;;;;17.75;11.55;;;7.30;99.90;;;;;;5077543;28;20221;-61
2023/04/08 07:47:22;;;;;;;14.93;10.90;;;7.40;99.90;;;;;;5077569;28;20207;-60
2023/04/08 07:49:49;;;;;;;14.23;9.80;;;7.40;99.90;;;;;;5077111;28;20279;-61
2023/04/08 07:52:16;;;;;;;16.55;10.48;;;7.60;99.90;;;;;;5077471;28;20239;-60
2023/04/08 07:54:44;;;;;;;15.70;9.73;;;7.70;99.90;;;;;;5077146;28;20220;-60
2023/04/08 07:57:11;;;;;;;15.63;9.73;;;7.70;99.90;;;;;;5078725;28;20275;-61
2023/04/08 07:59:38;;;;;;;12.27;10.20;;;7.70;99.90;;;;;;5077112;28;20200;-61
2023/04/08 08:02:05;;;;;;;14.35;10.10;;;7.70;99.90;;;;;;5076916;28;20206;-60
2023/04/08 08:04:31;;;;;;;12.20;9.57;;;7.80;99.90;;;;;;5076708;28;20221;-61
2023/04/08 08:06:58;;;;;;;12.02;9.07;;;7.80;99.90;;;;;;5075834;28;20205;-61
2023/04/08 08:09:25;;;;;;;16.88;11.05;;;7.90;99.90;;;;;;5075839;28;20204;-60
2023/04/08 08:11:53;;;;;;;13.50;10.13;;;8.00;99.90;;;;;;5076813;28;20217;-60
2023/04/08 08:14:20;;;;;;;15.75;9.82;;;8.00;99.90;;;;;;5076207;28;20308;-61
2023/04/08 08:16:48;;;;;;;18.67;11.85;;;7.90;99.90;;;;;;5076278;28;20226;-60
2023/04/08 08:19:15;;;;;;;14.93;10.07;;;7.90;99.90;;;;;;5076630;28;20209;-61
2023/04/08 08:21:42;;;;;;;14.88;10.77;;;7.90;99.90;;;;;;5076393;28;20288;-61
2023/04/08 08:24:09;;;;;;;16.58;10.90;;;7.80;99.90;;;;;;5076049;28;20232;-60
2023/04/08 08:26:36;;;;;;;12.57;9.73;;;7.90;99.90;;;;;;5075948;28;20193;-61
2023/04/08 08:29:07;;;;;;;15.10;10.95;;;8.00;99.90;;;;;;5075817;28;20201;-62
2023/04/08 08:31:34;;;;;;;20.38;12.40;;;8.00;99.90;;;;;;5075577;28;20309;-61
2023/04/08 08:34:01;;;;;;;17.45;12.13;;;8.10;99.90;;;;;;5076850;28;20201;-61
2023/04/08 08:36:28;;;;;;;18.30;11.93;;;8.20;99.90;;;;;;5076055;28;20201;-59
2023/04/08 08:38:55;;;;;;;18.83;12.85;;;8.30;99.90;;;;;;5075878;28;20297;-61
2023/04/08 08:41:22;;;;;;;18.60;11.65;;;8.40;99.90;;;;;;5076158;28;20224;-62
2023/04/08 08:43:49;;;;;;;15.52;11.55;;;8.50;99.90;;;;;;5077482;28;20280;-61
2023/04/08 08:46:18;;;;;;;15.35;10.57;;;8.50;99.90;;;;;;5078247;28;20205;-62
2023/04/08 08:48:45;;;;;;;18.42;11.27;;;8.50;99.90;;;;;;5077512;28;20227;-62
2023/04/08 08:51:13;;;;;;;18.45;12.80;;;8.50;99.90;;;;;;5076922;28;20221;-61
2023/04/08 08:53:43;;;;;;;15.00;11.65;;;8.50;99.90;;;;;;5077287;28;20197;-61
2023/04/08 08:56:11;;;;;;;18.77;12.38;;;8.60;99.90;;;;;;5077306;28;20190;-61
2023/04/08 08:58:38;;;;;;;16.58;11.68;;;8.60;99.90;;;;;;5080366;28;20287;-61
2023/04/08 09:01:41;;;;;;;17.70;10.95;;;8.60;99.90;;;;;;5080353;28;20258;-60
2023/04/08 09:04:15;;;;;;;15.77;11.57;;;8.60;99.90;;;;;;5073065;28;20216;-60
2023/04/08 09:06:42;;;;;;;17.58;11.65;;;8.60;99.90;;;;;;5079054;28;20180;-60
2023/04/08 09:09:12;;;;;;;16.15;11.05;;;8.60;99.90;;;;;;5079739;28;20209;-61
2023/04/08 09:11:41;;;;;;;17.30;11.70;;;8.50;99.90;;;;;;5079903;28;20564;-62
2023/04/08 09:14:19;;;;;;;18.55;11.80;;;8.50;99.90;;;;;;5080101;28;20224;-59
2023/04/08 09:16:46;;;;;;;16.70;12.65;;;8.50;99.90;;;;;;5079166;28;20189;-62
2023/04/08 09:19:14;;;;;;;19.77;12.40;;;8.40;99.90;;;;;;5080469;28;20201;-61
2023/04/08 09:21:41;;;;;;;18.88;13.05;;;8.40;99.90;;;;;;5079642;28;20583;-62
2023/04/08 09:24:08;;;;;;;20.20;12.57;;;8.40;99.90;;;;;;5081803;28;20255;-61
2023/04/08 09:26:37;;;;;;;20.83;12.77;;;8.50;99.90;;;;;;5082498;28;20217;-61
2023/04/08 09:29:05;;;;;;;17.33;11.77;;;8.50;99.90;;;;;;5082330;28;20201;-61
2023/04/08 09:31:35;;;;;;;20.17;12.73;;;8.50;99.90;;;;;;5083633;28;20582;-61
2023/04/08 09:34:10;;;;;;;16.25;11.15;;;8.60;99.90;;;;;;5083501;28;20212;-62
2023/04/08 09:36:38;;;;;;;16.40;10.73;;;8.60;99.90;;;;;;5084764;28;20204;-61
2023/04/08 09:39:06;;;;;;;18.63;12.57;;;8.70;99.90;;;;;;5083409;28;20207;-60
2023/04/08 09:41:34;;;;;;;17.08;11.35;;;8.70;99.90;;;;;;5081055;28;20205;-62
2023/04/08 09:44:04;;;;;;;19.55;12.88;;;8.70;99.90;;;;;;5080886;28;20232;-62
2023/04/08 09:46:36;;;;;;;18.67;12.30;;;8.70;99.90;;;;;;5081061;28;20233;-62
2023/04/08 09:49:06;;;;;;;24.80;13.00;;;8.70;99.90;;;;;;5081671;28;20189;-60
2023/04/08 09:51:41;;;;;;;22.45;13.52;;;8.70;99.90;;;;;;5081644;28;20258;-62
2023/04/08 09:54:14;;;;;;;16.90;12.40;;;8.90;99.90;;;;;;5081681;28;20240;-62
2023/04/08 09:56:47;;;;;;;20.40;13.38;;;9.00;99.90;;;;;;5081751;28;20185;-61
2023/04/08 09:59:17;;;;;;;18.70;12.13;;;9.10;99.90;;;;;;5080926;28;20694;-61
2023/04/08 10:01:52;;;;;;;19.93;12.70;;;9.20;99.90;;;;;;5080255;28;20219;-61
2023/04/08 10:04:22;;;;;;;21.80;12.57;;;9.30;99.90;;;;;;5080569;28;20469;-60
2023/04/08 10:06:54;;;;;;;21.50;12.40;;;9.30;99.90;;;;;;5079872;28;20451;-60
2023/04/08 10:09:22;;;;;;;17.80;12.20;;;9.30;99.90;;;;;;5079166;28;20423;-61
2023/04/08 10:11:49;;;;;;;21.10;14.27;;;9.20;99.90;;;;;;5080163;28;20225;-61
2023/04/08 10:14:16;;;;;;;20.10;13.20;;;9.20;99.90;;;;;;5080856;28;20550;-61
2023/04/08 10:16:43;;;;;;;18.88;12.90;;;9.10;99.90;;;;;;5080278;28;20231;-60
2023/04/08 10:19:39;;;;;;;17.67;12.13;;;9.00;99.90;;;;;;5080868;28;20208;-61
2023/04/08 10:22:48;;;;;;;17.67;12.40;;;8.90;99.90;;;;;;5079839;28;20192;-61
2023/04/08 10:25:32;;;;;;;19.80;13.10;;;9.00;99.90;;;;;;5079107;28;20229;-60
2023/04/08 10:27:59;;;;;;;17.65;11.68;;;9.00;99.90;;;;;;5080108;28;20195;-61
2023/04/08 10:30:43;;;;;;;21.03;13.23;;;9.20;99.90;;;;;;5080449;28;20716;-62
2023/04/08 10:33:14;;;;;;;22.75;12.32;;;9.20;99.90;;;;;;5079699;28;20469;-60
2023/04/08 10:35:45;;;;;;;19.20;13.55;;;9.20;99.90;;;;;;5079631;28;20232;-61
2023/04/08 10:38:13;;;;;;;15.77;12.27;;;9.10;99.90;;;;;;5078973;28;20212;-61
2023/04/08 10:40:41;;;;;;;17.27;11.57;;;9.10;99.90;;;;;;5079718;28;20215;-62
2023/04/08 10:43:09;;;;;;;19.58;11.48;;;9.20;99.90;;;;;;5078694;28;20291;-61
2023/04/08 10:45:36;;;;;;;20.67;12.82;;;9.20;99.90;;;;;;5078542;28;20750;-61
2023/04/08 10:48:17;;;;;;;18.65;12.27;;;9.30;99.90;;;;;;5078641;28;20201;-61
2023/04/08 10:50:45;;;;;;;21.10;12.40;;;9.20;99.90;;;;;;5083859;28;20193;-61
2023/04/08 10:53:13;;;;;;;17.10;13.70;;;9.20;99.90;;;;;;5082419;28;20729;-61
2023/04/08 10:55:41;;;;;;;17.63;12.43;;;9.10;99.90;;;;;;5082419;28;20690;-61
2023/04/08 10:58:08;;;;;;;17.95;12.65;;;9.00;99.90;;;;;;5082307;28;20611;-62
2023/04/08 11:00:37;;;;;;;20.63;12.38;;;9.00;99.90;;;;;;5081729;28;20291;-61
2023/04/08 11:03:05;;;;;;;18.55;13.82;;;9.10;99.90;;;;;;5081452;28;20193;-64
2023/04/08 11:05:32;;;;;;;16.55;11.52;;;9.10;99.90;;;;;;5082608;28;20221;-61
2023/04/08 11:07:59;;;;;;;21.05;13.05;;;9.20;99.90;;;;;;5080666;28;20227;-62
2023/04/08 11:10:28;;;;;;;19.05;12.90;;;9.30;99.90;;;;;;5081322;28;20197;-61
2023/04/08 11:12:56;;;;;;;20.10;14.50;;;9.30;99.90;;;;;;5080950;28;20217;-61
2023/04/08 11:15:24;;;;;;;22.00;13.97;;;9.30;99.90;;;;;;5080564;28;20284;-61
2023/04/08 11:17:52;;;;;;;19.85;12.77;;;9.20;99.90;;;;;;5078237;28;20450;-62
2023/04/08 11:20:19;;;;;;;22.05;14.75;;;9.20;99.90;;;;;;5078717;28;20269;-60
2023/04/08 11:22:47;;;;;;;21.02;14.02;;;9.10;99.90;;;;;;5079176;28;20196;-62
2023/04/08 11:25:14;;;;;;;21.95;14.40;;;9.10;99.90;;;;;;5078902;28;20229;-61
2023/04/08 11:27:43;;;;;;;19.73;13.82;;;9.20;99.90;;;;;;5076802;28;20211;-60
2023/04/08 11:30:11;;;;;;;17.45;14.07;;;9.20;99.90;;;;;;5077139;28;20201;-61
2023/04/08 11:32:39;;;;;;;18.40;12.48;;;9.20;99.90;;;;;;5076179;28;20224;-61
2023/04/08 11:35:06;;;;;;;19.30;13.98;;;9.20;99.90;;;;;;5077270;28;20224;-60
2023/04/08 11:37:38;;;;;;;18.10;13.07;;;9.10;99.90;;;;;;5077648;28;20283;-61
2023/04/08 11:40:08;;;;;;;19.77;13.95;;;9.10;99.90;;;;;;5077589;28;20194;-61
2023/04/08 11:42:34;;;;;;;21.65;13.60;;;9.10;99.90;;;;;;5076561;28;20189;-61
2023/04/08 11:45:11;;;;;;;15.30;12.27;;;9.10;99.90;;;;;;5076229;28;20312;-61
2023/04/08 11:47:38;;;;;;;20.92;12.82;;;9.20;99.90;;;;;;5074815;28;20189;-61
2023/04/08 11:50:05;;;;;;;21.93;14.77;;;9.30;99.90;;;;;;5075397;28;20304;-60
2023/04/08 11:52:43;;;;;;;18.85;12.82;;;9.40;99.90;;;;;;5077288;28;20482;-61
2023/04/08 11:55:10;;;;;;;16.73;11.73;;;9.40;99.90;;;;;;5077373;28;20279;-60
2023/04/08 11:57:37;;;;;;;15.27;12.00;;;9.30;99.90;;;;;;5076908;28;20501;-60
2023/04/08 12:00:07;;;;;;;17.27;12.20;;;9.30;99.90;;;;;;5076857;28;20447;-60
2023/04/08 12:02:34;;;;;;;20.63;12.37;;;9.30;99.90;;;;;;5077922;28;20192;-60
2023/04/08 12:05:02;;;;;;;17.70;12.88;;;9.40;99.90;;;;;;5076332;28;20467;-60
2023/04/08 12:07:28;;;;;;;16.48;12.40;;;9.40;99.90;;;;;;5077018;28;20295;-59
2023/04/08 12:09:55;;;;;;;16.00;12.20;;;9.40;99.90;;;;;;5075868;28;20624;-60
2023/04/08 12:12:22;;;;;;;17.65;12.07;;;9.40;99.90;;;;;;5074573;28;20482;-60
2023/04/08 12:14:49;;;;;;;25.60;13.67;;;9.40;99.90;;;;;;5075061;28;20220;-60
2023/04/08 12:17:17;;;;;;;16.23;12.85;;;9.50;99.90;;;;;;5075706;28;20796;-61
2023/04/08 12:19:44;;;;;;;16.77;12.43;;;9.50;99.90;;;;;;5075114;28;20292;-61
2023/04/08 12:22:11;;;;;;;16.30;11.33;;;9.50;99.90;;;;;;5078182;28;20611;-60
2023/04/08 12:24:38;;;;;;;18.37;13.17;;;9.50;99.90;;;;;;5077194;28;20561;-62
2023/04/08 12:27:04;;;;;;;20.43;13.00;;;9.50;99.90;;;;;;5079221;28;20447;-61
2023/04/08 12:29:32;;;;;;;17.65;12.13;;;9.50;99.90;;;;;;5077469;28;20443;-60
2023/04/08 12:31:58;;;;;;;17.80;13.30;;;9.60;99.90;;;;;;5079324;28;20734;-61
2023/04/08 12:34:27;;;;;;;16.70;12.83;;;9.50;99.90;;;;;;5081815;28;20469;-61
2023/04/08 12:36:54;;;;;;;19.13;12.53;;;9.50;99.90;;;;;;5080219;28;20485;-62
2023/04/08 12:39:21;;;;;;;17.25;13.32;;;9.40;99.90;;;;;;5080386;28;20447;-61
2023/04/08 12:41:48;;;;;;;19.88;13.30;;;9.30;99.90;;;;;;5080164;28;20208;-62
2023/04/08 12:44:15;;;;;;;16.73;13.05;;;9.30;99.90;;;;;;5079644;28;20227;-60
2023/04/08 12:46:42;;;;;;;21.92;14.07;;;9.20;99.90;;;;;;5078579;28;20235;-60
2023/04/08 12:49:09;;;;;;;21.70;13.55;;;9.10;99.90;;;;;;5079174;28;20204;-62
2023/04/08 12:51:37;;;;;;;17.58;13.50;;;9.00;99.90;;;;;;5079941;28;20204;-62